Time;durP1;ratioP1;P1;durP2;ratioP2;P2;SDS_P1;SDS_P2;PMS_P1;PMS_P2;Temp;Humidity;BMP_temperature;BMP_pressure;BME280_temperature;BME280_humidity;BME280_pressure;Samples;Min_cycle;Max_cycle;Signal;HPM_P1;HPM_P2
2023/10/29 00:01:37;;;;;;;3.97;2.05;;;;;;;10.93;100.00;98994.09;5070584;28;20115;-77
2023/10/29 00:04:03;;;;;;;3.50;2.25;;;;;;;10.96;100.00;98988.53;5062827;28;20017;-79
2023/10/29 00:06:28;;;;;;;3.38;1.70;;;;;;;10.97;100.00;98987.56;5070487;28;20074;-77
2023/10/29 00:08:53;;;;;;;3.90;1.92;;;;;;;10.98;100.00;98976.75;5074790;28;20028;-77
2023/10/29 00:11:19;;;;;;;2.53;1.80;;;;;;;10.99;100.00;98972.28;5073217;28;20039;-76
2023/10/29 00:13:45;;;;;;;3.20;1.83;;;;;;;11.02;100.00;98965.88;5077833;28;20105;-76
2023/10/29 00:16:11;;;;;;;4.75;1.90;;;;;;;11.01;100.00;98961.53;5077662;28;20471;-75
2023/10/29 00:18:36;;;;;;;3.58;1.83;;;;;;;10.97;100.00;98948.47;5069254;28;20036;-78
2023/10/29 00:21:03;;;;;;;3.28;1.80;;;;;;;10.98;100.00;98939.50;5080706;28;20042;-76
2023/10/29 00:23:29;;;;;;;3.35;1.80;;;;;;;11.02;100.00;98947.25;5077632;28;20032;-78
2023/10/29 00:25:54;;;;;;;4.90;1.80;;;;;;;10.96;100.00;98912.19;5071033;28;20043;-79
2023/10/29 00:28:20;;;;;;;3.35;2.00;;;;;;;10.93;100.00;98892.94;5067594;28;20043;-78
2023/10/29 00:30:46;;;;;;;3.47;1.80;;;;;;;10.91;100.00;98886.88;5072948;28;20120;-78
2023/10/29 00:33:11;;;;;;;3.22;1.55;;;;;;;10.88;100.00;98874.69;5080806;28;20110;-78
2023/10/29 00:35:36;;;;;;;2.97;1.67;;;;;;;10.95;100.00;98857.25;5081365;28;20120;-76
2023/10/29 00:38:02;;;;;;;3.65;1.98;;;;;;;11.01;100.00;98863.03;5081922;28;20343;-75
2023/10/29 00:40:30;;;;;;;2.47;1.73;;;;;;;11.01;100.00;98861.22;5070709;28;20135;-80
2023/10/29 00:42:57;;;;;;;2.17;1.77;;;;;;;11.06;100.00;98850.16;5080083;28;20052;-78
2023/10/29 00:45:23;;;;;;;3.53;1.70;;;;;;;11.11;100.00;98861.28;5079559;28;20043;-77
2023/10/29 00:47:49;;;;;;;2.33;1.75;;;;;;;11.18;100.00;98867.78;5083992;28;20040;-76
2023/10/29 00:50:14;;;;;;;3.75;1.83;;;;;;;11.28;100.00;98883.81;5083095;28;20024;-79
2023/10/29 00:52:40;;;;;;;3.35;1.73;;;;;;;11.35;100.00;98891.16;5085678;28;20185;-76
2023/10/29 00:55:06;;;;;;;4.00;1.70;;;;;;;11.34;100.00;98884.13;5081448;28;20271;-76
2023/10/29 00:57:32;;;;;;;1.85;1.70;;;;;;;11.39;100.00;98887.25;5078526;28;20478;-77
2023/10/29 00:59:58;;;;;;;5.13;1.95;;;;;;;11.48;100.00;98881.13;5076521;28;20029;-77
2023/10/29 01:02:23;;;;;;;2.65;2.28;;;;;;;11.46;100.00;98877.75;5088198;28;20073;-77
2023/10/29 01:04:49;;;;;;;2.92;1.70;;;;;;;11.53;100.00;98886.06;5082337;28;21415;-77
2023/10/29 01:07:16;;;;;;;2.80;1.50;;;;;;;11.54;100.00;98886.94;5080840;28;20106;-76
2023/10/29 01:09:43;;;;;;;2.90;1.83;;;;;;;11.61;100.00;98882.75;5083754;28;20059;-76
2023/10/29 01:12:16;;;;;;;3.45;1.77;;;;;;;11.67;100.00;98874.22;5082757;28;20032;-80
2023/10/29 01:14:42;;;;;;;2.78;1.75;;;;;;;11.65;100.00;98885.00;5068553;28;20486;-78
2023/10/29 01:17:07;;;;;;;3.17;1.60;;;;;;;11.62;100.00;98869.31;5083346;28;20027;-77
2023/10/29 01:19:32;;;;;;;4.78;1.88;;;;;;;11.52;100.00;98855.06;5073425;28;20028;-80
2023/10/29 01:21:58;;;;;;;4.78;1.60;;;;;;;11.50;100.00;98854.38;5075237;28;20023;-77
2023/10/29 01:24:24;;;;;;;2.10;1.75;;;;;;;11.41;100.00;98872.00;5080849;28;20374;-78
2023/10/29 01:26:49;;;;;;;2.10;1.80;;;;;;;11.34;100.00;98870.81;5091030;28;20043;-78
2023/10/29 01:29:15;;;;;;;5.03;2.03;;;;;;;11.25;100.00;98866.28;5077535;28;20046;-77
2023/10/29 01:31:41;;;;;;;2.38;1.58;;;;;;;11.15;100.00;98862.69;5077286;28;20028;-75
2023/10/29 01:34:06;;;;;;;3.92;2.05;;;;;;;11.17;100.00;98869.59;5081967;28;20697;-79
2023/10/29 01:36:32;;;;;;;3.25;1.70;;;;;;;11.14;100.00;98850.38;5087333;28;20023;-79
2023/10/29 01:38:58;;;;;;;4.28;2.17;;;;;;;11.08;100.00;98849.09;5082506;28;20498;-80
2023/10/29 01:41:24;;;;;;;3.78;2.00;;;;;;;11.09;100.00;98841.94;5077577;28;20032;-75
2023/10/29 01:43:49;;;;;;;3.13;2.10;;;;;;;11.07;100.00;98827.88;5071839;28;20028;-78
2023/10/29 01:46:15;;;;;;;2.72;1.85;;;;;;;11.02;100.00;98819.47;5082648;28;20042;-77
2023/10/29 01:48:43;;;;;;;2.78;1.73;;;;;;;10.94;100.00;98820.09;5079835;28;20028;-76
2023/10/29 01:51:08;;;;;;;3.25;2.00;;;;;;;10.86;100.00;98819.91;5078746;28;20086;-77
2023/10/29 01:53:34;;;;;;;3.88;1.75;;;;;;;10.83;100.00;98822.84;5079870;28;20487;-79
2023/10/29 01:55:59;;;;;;;6.03;2.03;;;;;;;10.82;100.00;98818.47;5089188;28;20042;-75
2023/10/29 01:58:24;;;;;;;2.95;1.80;;;;;;;10.76;100.00;98811.84;5079224;28;20123;-78
2023/10/29 02:00:54;;;;;;;3.45;2.00;;;;;;;10.62;100.00;98802.38;5080607;28;20442;-78
2023/10/29 02:03:20;;;;;;;3.50;1.80;;;;;;;10.68;100.00;98816.97;5073367;28;20513;-79
2023/10/29 02:05:45;;;;;;;4.60;2.05;;;;;;;10.62;100.00;98815.69;5076205;28;20106;-75
2023/10/29 02:08:11;;;;;;;5.03;2.20;;;;;;;10.67;100.00;98820.63;5076124;28;20401;-74
2023/10/29 02:10:36;;;;;;;3.33;2.05;;;;;;;10.68;100.00;98838.25;5082232;28;20036;-77
2023/10/29 02:13:02;;;;;;;3.38;1.85;;;;;;;10.70;100.00;98828.31;5071980;28;20047;-77
2023/10/29 02:15:27;;;;;;;4.65;1.98;;;;;;;10.69;100.00;98832.81;5089807;28;20089;-81
2023/10/29 02:17:53;;;;;;;3.75;1.90;;;;;;;10.70;100.00;98823.88;5087054;28;20024;-75
2023/10/29 02:20:18;;;;;;;3.42;1.85;;;;;;;10.73;100.00;98833.41;5073678;28;20479;-78
2023/10/29 02:22:43;;;;;;;4.45;1.70;;;;;;;10.68;100.00;98816.97;5085689;28;20027;-78
2023/10/29 02:25:09;;;;;;;2.50;1.70;;;;;;;10.75;100.00;98828.81;5074562;27;20165;-78
2023/10/29 02:27:34;;;;;;;2.13;1.70;;;;;;;10.76;100.00;98837.63;5074227;27;20123;-75
2023/10/29 02:29:59;;;;;;;2.65;1.83;;;;;;;10.69;100.00;98821.31;5073279;28;20039;-78
2023/10/29 02:32:25;;;;;;;2.60;1.70;;;;;;;10.80;100.00;98836.41;5084066;28;20095;-76
2023/10/29 02:34:50;;;;;;;4.15;1.80;;;;;;;10.89;100.00;98839.13;5076887;28;20016;-76
2023/10/29 02:37:15;;;;;;;2.78;1.70;;;;;;;10.89;100.00;98836.47;5073572;28;20385;-77
2023/10/29 02:39:43;;;;;;;5.00;1.70;;;;;;;10.92;100.00;98841.53;5079680;28;20027;-76
2023/10/29 02:42:09;;;;;;;2.90;1.75;;;;;;;10.98;100.00;98845.50;5078165;28;20486;-74
2023/10/29 02:44:34;;;;;;;2.40;1.80;;;;;;;10.96;100.00;98836.81;5078432;28;20032;-74
2023/10/29 02:46:59;;;;;;;2.22;1.52;;;;;;;11.01;100.00;98833.75;5076115;28;20082;-76
2023/10/29 02:49:25;;;;;;;3.20;1.70;;;;;;;11.08;100.00;98834.94;5072801;28;20035;-77
2023/10/29 02:51:50;;;;;;;3.17;1.73;;;;;;;11.19;100.00;98832.19;5078001;28;20337;-77
2023/10/29 02:54:15;;;;;;;2.42;1.63;;;;;;;11.17;100.00;98827.00;5073483;28;20065;-77
2023/10/29 02:56:41;;;;;;;4.05;1.35;;;;;;;11.22;100.00;98831.91;5076916;28;20039;-77
2023/10/29 02:59:06;;;;;;;2.20;1.58;;;;;;;11.35;100.00;98832.56;5080570;28;20083;-77
2023/10/29 03:01:31;;;;;;;2.50;1.48;;;;;;;11.49;100.00;98836.69;5073238;28;20036;-81
2023/10/29 03:03:57;;;;;;;1.50;1.40;;;;;;;11.55;100.00;98830.00;5082631;28;20051;-78
2023/10/29 03:06:22;;;;;;;1.52;1.40;;;;;;;11.50;100.00;98827.72;5079210;28;20043;-76
2023/10/29 03:08:48;;;;;;;2.85;1.30;;;;;;;11.63;100.00;98840.84;5078591;28;20497;-77
2023/10/29 03:11:13;;;;;;;1.92;1.30;;;;;;;11.65;100.00;98829.03;5078633;28;20036;-75
2023/10/29 03:13:38;;;;;;;2.00;1.35;;;;;;;11.62;100.00;98825.81;5079051;28;20035;-75
2023/10/29 03:16:04;;;;;;;1.88;1.38;;;;;;;11.56;100.00;98819.19;5075641;28;20394;-77
2023/10/29 03:18:29;;;;;;;1.77;1.20;;;;;;;11.67;100.00;98829.78;5074579;28;20115;-76
2023/10/29 03:20:55;;;;;;;1.48;1.20;;;;;;;11.71;100.00;98843.69;5080433;28;20042;-80
2023/10/29 03:23:21;;;;;;;2.67;1.13;;;;;;;11.75;100.00;98837.09;5087027;28;20044;-75
2023/10/29 03:25:47;;;;;;;1.98;1.20;;;;;;;11.81;100.00;98841.88;5080554;28;20112;-76
2023/10/29 03:28:12;;;;;;;2.03;1.10;;;;;;;11.75;100.00;98829.09;5077292;28;21007;-75
2023/10/29 03:30:38;;;;;;;2.47;1.30;;;;;;;11.57;100.00;98815.53;5078109;28;20046;-78
2023/10/29 03:33:03;;;;;;;1.88;1.20;;;;;;;11.53;100.00;98838.09;5077202;28;20490;-75
2023/10/29 03:35:28;;;;;;;4.47;1.67;;;;;;;11.44;100.00;98837.09;5084055;28;20508;-77
2023/10/29 03:37:54;;;;;;;1.30;1.20;;;;;;;11.37;100.00;98846.59;5071383;28;20471;-75
2023/10/29 03:40:20;;;;;;;3.30;1.45;;;;;;;11.29;100.00;98834.91;5073113;28;20676;-78
2023/10/29 03:42:45;;;;;;;1.20;1.10;;;;;;;11.33;100.00;98849.63;5072752;28;20526;-75
2023/10/29 03:45:11;;;;;;;1.40;1.30;;;;;;;11.31;100.00;98848.94;5079532;28;20035;-75
2023/10/29 03:47:36;;;;;;;3.53;1.20;;;;;;;11.25;100.00;98837.00;5072315;28;20064;-77
2023/10/29 03:50:02;;;;;;;2.45;1.35;;;;;;;11.27;100.00;98848.34;5080293;28;20038;-73
2023/10/29 03:52:27;;;;;;;1.20;1.05;;;;;;;11.27;100.00;98840.34;5078467;28;20070;-79
2023/10/29 03:54:53;;;;;;;2.35;1.30;;;;;;;11.29;100.00;98861.53;5075480;28;20094;-78
2023/10/29 03:57:18;;;;;;;1.27;1.13;;;;;;;11.29;100.00;98856.22;5083218;28;20108;-76
2023/10/29 03:59:43;;;;;;;1.30;1.13;;;;;;;11.35;100.00;98856.53;5065987;28;20035;-77
2023/10/29 04:02:09;;;;;;;1.67;1.33;;;;;;;11.37;100.00;98857.25;5077274;28;20031;-76
2023/10/29 04:04:35;;;;;;;1.88;1.40;;;;;;;11.40;100.00;98845.47;5073445;28;20514;-76
2023/10/29 04:07:01;;;;;;;2.42;1.38;;;;;;;11.48;100.00;98841.16;5072994;28;20022;-77
2023/10/29 04:09:27;;;;;;;2.00;1.20;;;;;;;11.54;100.00;98861.13;5077310;28;20036;-73
2023/10/29 04:11:52;;;;;;;1.45;1.35;;;;;;;11.59;100.00;98840.25;5081609;28;20027;-78
2023/10/29 04:14:18;;;;;;;2.47;1.15;;;;;;;11.55;100.00;98848.66;5071729;28;20032;-78
2023/10/29 04:16:43;;;;;;;2.13;1.40;;;;;;;11.55;100.00;98844.16;5081124;28;20312;-75
2023/10/29 04:19:08;;;;;;;1.95;1.25;;;;;;;11.57;100.00;98857.34;5086046;28;20054;-77
2023/10/29 04:21:34;;;;;;;2.85;1.25;;;;;;;11.62;100.00;98855.97;5077753;28;20019;-79
2023/10/29 04:23:59;;;;;;;3.33;1.23;;;;;;;11.66;100.00;98867.19;5073915;28;20071;-77
2023/10/29 04:26:24;;;;;;;3.05;1.45;;;;;;;11.59;100.00;98856.25;5075825;28;20025;-78
2023/10/29 04:28:50;;;;;;;3.00;1.30;;;;;;;11.59;100.00;98858.06;5076476;28;20035;-76
2023/10/29 04:31:15;;;;;;;3.03;1.48;;;;;;;11.61;100.00;98864.09;5078175;28;20032;-77
2023/10/29 04:33:41;;;;;;;4.03;1.48;;;;;;;11.67;100.00;98868.91;5079655;28;20051;-75
2023/10/29 04:36:06;;;;;;;3.22;1.40;;;;;;;11.73;100.00;98884.34;5074141;28;20031;-78
2023/10/29 04:38:35;;;;;;;3.33;1.30;;;;;;;11.81;100.00;98884.53;5080704;28;20524;-78
2023/10/29 04:41:00;;;;;;;2.17;1.30;;;;;;;11.82;100.00;98866.72;5082595;28;20020;-76
2023/10/29 04:43:26;;;;;;;2.42;1.30;;;;;;;11.84;100.00;98876.31;5079517;28;20297;-75
2023/10/29 04:45:51;;;;;;;3.05;1.20;;;;;;;11.89;100.00;98865.22;5079194;28;20047;-75
2023/10/29 04:48:17;;;;;;;2.22;1.10;;;;;;;11.88;100.00;98867.06;5075965;28;20051;-74
2023/10/29 04:50:42;;;;;;;4.63;1.58;;;;;;;11.68;100.00;98865.25;5077243;28;20074;-75
2023/10/29 04:53:07;;;;;;;2.75;1.55;;;;;;;11.57;100.00;98883.97;5078679;28;20791;-76
2023/10/29 04:55:33;;;;;;;1.90;1.40;;;;;;;11.45;100.00;98885.88;5078269;28;20085;-75
2023/10/29 04:57:58;;;;;;;4.05;1.58;;;;;;;11.37;100.00;98875.91;5082984;28;20571;-76
2023/10/29 05:00:23;;;;;;;3.58;1.33;;;;;;;11.29;100.00;98858.88;5076981;28;20028;-78
2023/10/29 05:02:49;;;;;;;7.40;2.10;;;;;;;11.26;100.00;98867.13;5075830;28;20043;-75
2023/10/29 05:05:14;;;;;;;3.97;1.65;;;;;;;11.20;100.00;98866.69;5067835;28;20035;-74
2023/10/29 05:07:41;;;;;;;4.07;1.60;;;;;;;11.19;100.00;98870.28;5079062;28;20016;-75
2023/10/29 05:10:06;;;;;;;3.55;1.70;;;;;;;11.13;100.00;98875.31;5080951;28;20032;-76
2023/10/29 05:12:32;;;;;;;3.97;2.03;;;;;;;11.11;100.00;98855.94;5086365;28;20571;-77
2023/10/29 05:14:58;;;;;;;4.32;1.88;;;;;;;11.01;100.00;98847.06;5083247;28;20077;-78
2023/10/29 05:17:23;;;;;;;4.93;1.80;;;;;;;11.06;100.00;98860.81;5076772;28;20511;-81
2023/10/29 05:19:48;;;;;;;4.10;1.77;;;;;;;11.06;100.00;98879.47;5083127;28;20039;-80
2023/10/29 05:22:14;;;;;;;5.18;1.88;;;;;;;11.01;100.00;98889.66;5087948;28;20092;-73
2023/10/29 05:24:40;;;;;;;4.32;1.70;;;;;;;10.94;100.00;98876.84;5082505;28;20023;-79
2023/10/29 05:27:05;;;;;;;4.32;1.75;;;;;;;10.99;100.00;98892.41;5088516;28;20020;-77
2023/10/29 05:29:32;;;;;;;3.70;1.98;;;;;;;10.95;100.00;98875.88;5085051;28;20139;-78
2023/10/29 05:31:57;;;;;;;4.20;1.80;;;;;;;10.86;100.00;98866.00;5078059;28;20377;-75
2023/10/29 05:34:23;;;;;;;5.70;1.67;;;;;;;10.86;100.00;98858.00;5081456;28;20044;-80
2023/10/29 05:36:48;;;;;;;7.22;2.00;;;;;;;10.83;100.00;98884.06;5080235;28;20029;-81
2023/10/29 05:39:17;;;;;;;5.70;1.92;;;;;;;10.78;100.00;98887.06;5082660;28;20054;-75
2023/10/29 05:41:42;;;;;;;5.53;2.03;;;;;;;10.78;100.00;98881.75;5079034;28;20024;-76
2023/10/29 05:44:08;;;;;;;3.95;1.55;;;;;;;10.81;100.00;98902.78;5077192;28;20020;-76
2023/10/29 05:46:33;;;;;;;4.25;1.77;;;;;;;10.87;100.00;98915.59;5073542;28;20136;-75
2023/10/29 05:48:59;;;;;;;6.78;1.85;;;;;;;10.88;100.00;98940.41;5082505;28;20028;-75
2023/10/29 05:51:24;;;;;;;4.63;1.70;;;;;;;10.85;100.00;98946.81;5067477;28;20108;-76
2023/10/29 05:53:50;;;;;;;4.25;1.70;;;;;;;10.83;100.00;98951.44;5077575;28;20035;-77
2023/10/29 05:56:18;;;;;;;6.68;2.03;;;;;;;10.83;100.00;98943.44;5083554;28;20031;-78
2023/10/29 05:58:43;;;;;;;4.22;1.77;;;;;;;10.81;100.00;98953.34;5084350;28;20027;-77
2023/10/29 06:01:10;;;;;;;7.03;2.05;;;;;;;10.84;100.00;98962.91;5063247;28;20391;-75
2023/10/29 06:03:36;;;;;;;4.60;1.60;;;;;;;10.82;100.00;98972.81;5083313;28;20046;-76
2023/10/29 06:06:01;;;;;;;4.40;2.03;;;;;;;10.83;100.00;98979.88;5073695;28;20019;-77
2023/10/29 06:08:26;;;;;;;4.88;1.90;;;;;;;10.83;100.00;98988.69;5073585;28;20031;-75
2023/10/29 06:10:52;;;;;;;6.90;2.13;;;;;;;10.79;100.00;98986.41;5078615;28;20111;-77
2023/10/29 06:13:17;;;;;;;3.25;1.63;;;;;;;10.75;100.00;98996.44;5080105;28;20052;-77
2023/10/29 06:15:42;;;;;;;7.22;1.70;;;;;;;10.69;100.00;99004.91;5085921;28;20477;-79
2023/10/29 06:18:08;;;;;;;6.57;2.13;;;;;;;10.65;100.00;98996.31;5078957;28;20054;-78
2023/10/29 06:20:34;;;;;;;5.85;2.15;;;;;;;10.67;100.00;98997.06;5080445;28;20496;-78
2023/10/29 06:22:59;;;;;;;7.10;2.00;;;;;;;10.66;100.00;99002.50;5080938;28;20028;-77
2023/10/29 06:25:25;;;;;;;5.57;1.65;;;;;;;10.61;100.00;99010.84;5078947;28;20495;-77
2023/10/29 06:27:50;;;;;;;6.88;1.77;;;;;;;10.61;100.00;99020.63;5075825;28;20235;-79
2023/10/29 06:30:16;;;;;;;6.38;2.10;;;;;;;10.60;100.00;99019.78;5071518;28;20028;-75
2023/10/29 06:32:42;;;;;;;4.13;2.30;;;;;;;10.58;100.00;99012.94;5075110;28;20077;-77
2023/10/29 06:35:08;;;;;;;5.10;1.67;;;;;;;10.60;100.00;99013.63;5076275;28;20500;-77
2023/10/29 06:37:34;;;;;;;5.90;1.85;;;;;;;10.45;100.00;99000.59;5073429;28;20032;-77
2023/10/29 06:39:59;;;;;;;5.65;2.10;;;;;;;10.62;100.00;99012.56;5078222;28;20016;-78
2023/10/29 06:42:25;;;;;;;5.53;2.25;;;;;;;10.62;100.00;99043.63;5084118;28;20031;-76
2023/10/29 06:44:50;;;;;;;12.02;3.42;;;;;;;10.59;100.00;99035.88;5083170;28;20378;-78
2023/10/29 06:47:16;;;;;;;7.53;2.08;;;;;;;10.64;100.00;99033.69;5071800;28;20041;-75
2023/10/29 06:49:41;;;;;;;9.02;2.30;;;;;;;10.59;100.00;99022.59;5070874;28;20039;-80
2023/10/29 06:52:07;;;;;;;8.93;2.13;;;;;;;10.64;100.00;99028.38;5073063;28;20032;-77
2023/10/29 06:54:33;;;;;;;7.35;2.20;;;;;;;10.60;100.00;99042.91;5073778;28;20028;-79
2023/10/29 06:56:58;;;;;;;9.93;2.58;;;;;;;10.67;100.00;99052.09;5086798;28;20036;-77
2023/10/29 06:59:24;;;;;;;8.63;2.10;;;;;;;10.67;100.00;99044.09;5074305;28;20588;-78
2023/10/29 07:01:50;;;;;;;4.72;1.77;;;;;;;10.67;100.00;99054.75;5073040;28;20245;-79
2023/10/29 07:04:16;;;;;;;9.35;2.60;;;;;;;10.73;100.00;99063.06;5083694;28;20036;-77
2023/10/29 07:06:41;;;;;;;9.90;2.13;;;;;;;10.81;100.00;99067.78;5079236;28;20367;-75
2023/10/29 07:09:06;;;;;;;7.07;2.20;;;;;;;10.88;100.00;99073.47;5075756;28;20074;-76
2023/10/29 07:11:32;;;;;;;7.85;2.58;;;;;;;10.95;100.00;99083.50;5076202;28;20039;-77
2023/10/29 07:13:57;;;;;;;6.95;2.20;;;;;;;11.00;100.00;99098.28;5080536;28;20194;-77
2023/10/29 07:16:22;;;;;;;7.53;2.08;;;;;;;11.05;100.00;99094.25;5079951;28;20034;-75
2023/10/29 07:18:48;;;;;;;5.57;2.00;;;;;;;11.17;100.00;99095.09;5071286;28;20080;-77
2023/10/29 07:21:14;;;;;;;8.68;2.22;;;;;;;11.25;100.00;99092.66;5071701;28;20039;-78
2023/10/29 07:23:44;;;;;;;8.23;2.25;;;;;;;11.31;100.00;99093.97;5079204;28;20498;-76
2023/10/29 07:26:09;;;;;;;7.88;2.00;;;;;;;11.47;100.00;99086.41;5070269;28;20028;-77
2023/10/29 07:28:35;;;;;;;6.38;2.22;;;;;;;11.56;100.00;99096.28;5084498;28;20324;-77
2023/10/29 07:31:02;;;;;;;5.03;1.90;;;;;;;11.66;100.00;99096.38;5082396;28;20585;-76
2023/10/29 07:33:28;;;;;;;6.70;2.10;;;;;;;11.70;100.00;99119.13;5080696;28;20028;-76
2023/10/29 07:35:53;;;;;;;6.82;1.90;;;;;;;11.70;100.00;99124.47;5070216;28;20027;-76
2023/10/29 07:38:18;;;;;;;8.25;2.28;;;;;;;11.66;100.00;99118.56;5072913;28;20065;-77
2023/10/29 07:40:44;;;;;;;5.90;2.00;;;;;;;11.69;100.00;99133.44;5080103;28;20019;-75
2023/10/29 07:43:09;;;;;;;8.18;2.35;;;;;;;11.69;100.00;99128.09;5079656;28;20032;-78
2023/10/29 07:45:34;;;;;;;10.20;2.63;;;;;;;11.64;100.00;99123.16;5072235;28;20371;-76
2023/10/29 07:48:00;;;;;;;8.73;2.17;;;;;;;11.64;100.00;99146.31;5082151;28;20047;-77
2023/10/29 07:50:26;;;;;;;8.75;2.20;;;;;;;11.69;100.00;99136.94;5089647;28;20031;-78
2023/10/29 07:52:51;;;;;;;7.68;2.53;;;;;;;11.83;100.00;99157.19;5084269;28;20443;-79
2023/10/29 07:55:17;;;;;;;9.25;2.20;;;;;;;11.90;100.00;99158.34;5087077;28;20115;-77
2023/10/29 07:57:42;;;;;;;5.80;2.10;;;;;;;11.91;100.00;99154.72;5085236;28;20444;-74
2023/10/29 08:00:14;;;;;;;7.93;2.45;;;;;;;11.87;100.00;99155.94;5077884;28;20575;-77
2023/10/29 08:02:44;;;;;;;8.35;2.58;;;;;;;11.85;100.00;99155.22;5081608;28;20028;-76
2023/10/29 08:05:12;;;;;;;8.63;2.25;;;;;;;11.86;100.00;99156.06;5083507;28;20312;-75
2023/10/29 08:07:39;;;;;;;7.78;2.72;;;;;;;11.84;100.00;99163.34;5088125;28;20632;-76
2023/10/29 08:10:05;;;;;;;5.68;1.90;;;;;;;11.79;100.00;99166.38;5079661;28;20082;-76
2023/10/29 08:12:31;;;;;;;6.90;2.05;;;;;;;11.79;100.00;99171.69;5088672;28;20513;-76
2023/10/29 08:14:56;;;;;;;7.20;2.50;;;;;;;11.81;100.00;99172.41;5084076;28;20056;-75
2023/10/29 08:17:21;;;;;;;5.72;2.00;;;;;;;11.86;100.00;99170.22;5077436;28;20071;-78
2023/10/29 08:19:47;;;;;;;8.77;2.15;;;;;;;11.87;100.00;99177.28;5077710;28;20109;-77
2023/10/29 08:22:13;;;;;;;7.30;2.25;;;;;;;11.85;100.00;99168.53;5079573;28;20020;-76
2023/10/29 08:24:40;;;;;;;5.80;1.83;;;;;;;12.05;100.00;99187.38;5076626;28;20126;-76
2023/10/29 08:27:06;;;;;;;7.57;2.53;;;;;;;12.15;100.00;99183.81;5074632;28;20032;-77
2023/10/29 08:29:35;;;;;;;6.25;2.25;;;;;;;12.25;100.00;99183.03;5071893;28;20028;-78
2023/10/29 08:32:01;;;;;;;9.63;2.42;;;;;;;12.33;100.00;99185.91;5080025;28;20126;-76
2023/10/29 08:34:27;;;;;;;9.00;2.58;;;;;;;12.32;100.00;99179.72;5078407;28;20024;-76
2023/10/29 08:36:53;;;;;;;7.47;2.30;;;;;;;12.26;100.00;99193.59;5085593;28;20546;-78
2023/10/29 08:39:21;;;;;;;7.35;2.40;;;;;;;12.24;100.00;99195.53;5075365;28;20043;-78
2023/10/29 08:41:47;;;;;;;6.47;2.35;;;;;;;12.23;100.00;99193.84;5072416;28;20115;-78
2023/10/29 08:44:12;;;;;;;6.68;2.13;;;;;;;12.18;100.00;99204.91;5075586;28;20554;-74
2023/10/29 08:46:37;;;;;;;7.05;2.30;;;;;;;12.15;100.00;99201.63;5072812;28;20049;-77
2023/10/29 08:49:03;;;;;;;8.82;2.30;;;;;;;12.14;100.00;99203.47;5086860;28;20027;-79
2023/10/29 08:51:28;;;;;;;6.85;2.45;;;;;;;12.25;100.00;99215.03;5078060;28;20228;-80
2023/10/29 08:53:53;;;;;;;4.72;2.00;;;;;;;12.24;100.00;99227.53;5085399;28;20055;-78
2023/10/29 08:56:19;;;;;;;8.57;2.25;;;;;;;12.27;100.00;99243.28;5077314;28;20032;-78
2023/10/29 08:58:44;;;;;;;7.15;1.83;;;;;;;12.30;100.00;99242.19;5088236;28;20110;-77
2023/10/29 09:01:12;;;;;;;6.63;2.05;;;;;;;12.35;100.00;99242.66;5078742;28;20026;-77
2023/10/29 09:03:37;;;;;;;7.38;2.10;;;;;;;12.43;100.00;99248.19;5090062;28;20028;-76
2023/10/29 09:06:03;;;;;;;6.32;1.95;;;;;;;12.48;98.78;99255.81;5075929;28;20055;-78
2023/10/29 09:08:33;;;;;;;11.43;2.47;;;;;;;12.48;98.32;99271.81;5073966;28;20032;-76
2023/10/29 09:10:59;;;;;;;7.15;2.15;;;;;;;12.57;98.89;99271.03;5079810;28;20497;-79
2023/10/29 09:13:24;;;;;;;6.05;1.98;;;;;;;12.71;95.64;99265.41;5076952;28;20032;-80
2023/10/29 09:15:50;;;;;;;7.63;2.05;;;;;;;12.94;96.61;99258.94;5092634;28;20479;-79
2023/10/29 09:18:18;;;;;;;6.85;2.13;;;;;;;13.23;93.12;99260.09;5074104;28;20035;-77
2023/10/29 09:20:46;;;;;;;8.00;2.50;;;;;;;13.44;93.81;99251.06;5073537;28;20021;-82
2023/10/29 09:23:14;;;;;;;7.22;2.08;;;;;;;13.75;90.56;99253.66;5079111;28;20060;-82
2023/10/29 09:25:39;;;;;;;5.20;2.00;;;;;;;13.80;89.04;99269.34;5072345;28;20490;-81
2023/10/29 09:28:07;;;;;;;6.65;2.42;;;;;;;13.68;89.11;99274.78;5075541;28;20035;-80
2023/10/29 09:30:32;;;;;;;7.38;2.00;;;;;;;13.59;89.60;99282.78;5074688;28;20186;-79
2023/10/29 09:32:58;;;;;;;8.82;2.55;;;;;;;13.49;90.80;99271.19;5083832;28;20479;-85
2023/10/29 09:35:24;;;;;;;7.25;2.17;;;;;;;13.44;90.09;99275.09;5083166;28;20027;-81
2023/10/29 09:37:50;;;;;;;7.70;2.20;;;;;;;13.54;90.98;99282.31;5086694;28;20034;-87
2023/10/29 09:40:19;;;;;;;9.73;2.90;;;;;;;13.73;88.72;99274.38;5083990;28;20040;-83
2023/10/29 09:42:53;;;;;;;5.72;2.13;;;;;;;14.03;88.02;99265.41;5076277;28;20027;-81
2023/10/29 09:45:23;;;;;;;7.53;2.40;;;;;;;14.29;88.59;99281.78;5072571;28;20040;-82
2023/10/29 09:47:49;;;;;;;9.98;2.28;;;;;;;14.26;86.81;99270.53;5091646;27;20629;-82
2023/10/29 09:50:15;;;;;;;8.38;2.47;;;;;;;14.17;84.68;99273.06;5074503;28;20038;-80
2023/10/29 09:52:42;;;;;;;6.57;2.17;;;;;;;14.08;84.91;99281.06;5080613;28;20492;-82
2023/10/29 09:55:08;;;;;;;7.78;2.17;;;;;;;13.98;84.50;99278.38;5076504;28;20398;-82
2023/10/29 09:57:34;;;;;;;4.50;1.70;;;;;;;13.89;84.12;99258.66;5082541;28;20024;-78
2023/10/29 10:00:00;;;;;;;5.35;2.10;;;;;;;13.89;85.48;99253.28;5077924;28;20761;-83
2023/10/29 10:02:26;;;;;;;6.97;2.40;;;;;;;13.92;86.63;99252.19;5080118;28;20031;-79
2023/10/29 10:04:52;;;;;;;8.60;2.10;;;;;;;13.99;87.33;99253.31;5075715;28;20028;-82
2023/10/29 10:07:18;;;;;;;5.68;1.77;;;;;;;13.94;85.85;99267.09;5083571;28;20058;-80
2023/10/29 10:09:54;;;;;;;9.10;2.00;;;;;;;13.85;86.18;99259.91;5081522;28;20036;-80
2023/10/29 10:12:20;;;;;;;7.03;2.22;;;;;;;13.78;86.37;99269.44;5081152;28;20051;-83
2023/10/29 10:14:49;;;;;;;8.10;2.47;;;;;;;13.78;87.38;99266.78;5085594;28;20492;-77
2023/10/29 10:17:14;;;;;;;6.25;1.90;;;;;;;13.81;86.65;99261.16;5074959;28;20060;-81
2023/10/29 10:19:40;;;;;;;5.57;2.30;;;;;;;13.72;87.18;99240.59;5080900;28;20059;-83
2023/10/29 10:22:06;;;;;;;6.53;2.10;;;;;;;13.67;85.04;99237.50;5084523;28;20058;-82
2023/10/29 10:24:48;;;;;;;8.93;2.42;;;;;;;13.64;86.32;99243.09;5087883;28;20553;-81
2023/10/29 10:27:13;;;;;;;8.85;2.25;;;;;;;13.57;87.87;99250.81;5090376;28;20216;-80
2023/10/29 10:29:39;;;;;;;8.57;2.42;;;;;;;13.55;nan;99250.13;5090413;28;20083;-78
2023/10/29 10:32:05;;;;;;;5.93;1.98;;;;;;;13.64;85.36;99254.66;5079507;28;20467;-81
2023/10/29 10:34:39;;;;;;;5.75;2.38;;;;;;;13.80;85.41;99240.75;5085056;28;20020;-78
2023/10/29 10:37:04;;;;;;;5.85;1.90;;;;;;;14.01;83.83;99255.84;5103343;27;20021;-80
2023/10/29 10:39:31;;;;;;;6.03;1.75;;;;;;;14.06;83.28;99259.81;5088135;28;20019;-84
2023/10/29 10:41:59;;;;;;;9.65;2.30;;;;;;;14.05;83.78;99268.81;5082525;28;20085;-82
2023/10/29 10:44:27;;;;;;;8.15;2.35;;;;;;;13.98;84.72;99272.19;5073175;28;20047;-79
2023/10/29 10:46:58;;;;;;;9.18;2.15;;;;;;;13.95;85.93;99289.34;5079862;28;20036;-84
2023/10/29 10:49:25;;;;;;;9.85;2.30;;;;;;;13.93;84.93;99288.63;5077209;28;20127;-80
2023/10/29 10:51:58;;;;;;;6.18;2.30;;;;;;;14.06;85.05;99293.75;5071395;28;20032;-79
2023/10/29 10:54:24;;;;;;;;;;;;;;;14.18;85.48;99295.31;5084471;28;20036;-78
2023/10/29 10:56:50;;;;;;;8.32;2.70;;;;;;;13.88;84.94;99299.75;5069686;28;19915;-82
2023/10/29 10:59:20;;;;;;;7.13;1.90;;;;;;;13.69;85.79;99299.69;5078519;28;20062;-80
2023/10/29 11:01:49;;;;;;;6.93;2.10;;;;;;;13.56;86.26;99299.06;5071460;28;20016;-77
2023/10/29 11:04:15;;;;;;;7.55;2.15;;;;;;;13.42;87.10;99303.81;5082302;28;20523;-82
2023/10/29 11:06:41;;;;;;;6.43;2.00;;;;;;;13.34;87.19;99300.13;5079082;28;20219;-78
2023/10/29 11:09:12;;;;;;;7.38;2.33;;;;;;;13.19;88.27;99281.72;5081864;28;20032;-83
2023/10/29 11:12:09;;;;;;;8.68;2.40;;;;;;;13.20;89.74;99278.03;5072683;28;20024;-84
2023/10/29 11:14:34;;;;;;;4.75;1.88;;;;;;;13.22;91.41;99288.63;5070291;28;20230;-78
2023/10/29 11:17:00;;;;;;;7.25;2.50;;;;;;;13.22;90.38;99288.63;5080653;28;20030;-82
2023/10/29 11:19:44;;;;;;;7.78;2.55;;;;;;;13.29;90.67;99276.44;5078843;28;20548;-81
2023/10/29 11:22:25;;;;;;;7.93;2.45;;;;;;;13.29;91.32;99265.75;5077886;28;20028;-81